createdAt,value
2018-03-04T00:00:55.835Z,0
2018-03-04T00:02:05.556Z,0
2018-03-04T00:03:15.276Z,0
2018-03-04T00:04:25.003Z,0
2018-03-04T00:05:34.725Z,0
2018-03-04T00:06:44.706Z,0
2018-03-04T00:07:54.436Z,0
2018-03-04T00:09:04.422Z,0
2018-03-04T00:10:14.143Z,0
2018-03-04T00:11:24.131Z,0
2018-03-04T00:12:34.117Z,0
2018-03-04T00:13:43.836Z,0
2018-03-04T00:14:53.821Z,0
2018-03-04T00:16:03.539Z,0
2018-03-04T00:17:12.992Z,0
2018-03-04T00:18:22.993Z,0
2018-03-04T00:19:32.718Z,0
2018-03-04T00:20:42.705Z,0
2018-03-04T00:21:52.160Z,0
2018-03-04T00:23:02.159Z,0
2018-03-04T00:24:11.898Z,0
2018-03-04T00:25:21.917Z,0
2018-03-04T00:26:31.911Z,0
2018-03-04T00:27:41.922Z,0
2018-03-04T00:28:51.648Z,0
2018-03-04T00:30:01.650Z,0
2018-03-04T00:31:11.644Z,0
2018-03-04T00:32:21.370Z,0
2018-03-04T00:33:31.099Z,0
2018-03-04T00:34:40.867Z,0
2018-03-04T00:35:50.871Z,0
2018-03-04T00:37:00.858Z,0
2018-03-04T00:38:10.847Z,0
2018-03-04T00:39:20.836Z,0
2018-03-04T00:40:30.828Z,0
2018-03-04T00:41:40.816Z,0
2018-03-04T00:42:50.270Z,0
2018-03-04T00:43:59.994Z,0
2018-03-04T00:45:09.442Z,0
2018-03-04T00:46:19.168Z,0
2018-03-04T00:47:28.885Z,0
2018-03-04T00:48:38.884Z,0
2018-03-04T00:49:48.874Z,0
2018-03-04T00:50:58.867Z,0
2018-03-04T00:52:08.596Z,0
2018-03-04T00:53:18.327Z,0
2018-03-04T00:54:28.312Z,0
2018-03-04T00:55:38.028Z,0
2018-03-04T00:56:47.748Z,0
2018-03-04T00:57:57.467Z,0
2018-03-04T00:59:07.200Z,0
2018-03-04T01:00:16.653Z,0
2018-03-04T01:01:26.652Z,0
2018-03-04T01:02:36.376Z,0
2018-03-04T01:03:46.370Z,0
2018-03-04T01:04:56.100Z,0
2018-03-04T01:06:05.825Z,0
2018-03-04T01:07:15.852Z,0
2018-03-04T01:08:25.840Z,0
2018-03-04T01:09:35.832Z,0
2018-03-04T01:10:45.556Z,0
2018-03-04T01:11:55.541Z,0
2018-03-04T01:13:05.528Z,0
2018-03-04T01:14:15.254Z,0
2018-03-04T01:15:24.979Z,0
2018-03-04T01:16:34.699Z,0
2018-03-04T01:17:44.688Z,0
2018-03-04T01:18:54.671Z,0
2018-03-04T01:20:04.396Z,0
2018-03-04T01:21:14.119Z,0
2018-03-04T01:22:24.104Z,0
2018-03-04T01:23:34.088Z,0
2018-03-04T01:24:44.082Z,0
2018-03-04T01:25:53.536Z,0
2018-03-04T01:27:02.988Z,0
2018-03-04T01:28:12.829Z,0
2018-03-04T01:29:22.545Z,0
2018-03-04T01:30:32.271Z,0
2018-03-04T01:31:42.259Z,0
2018-03-04T01:32:52.245Z,0
2018-03-04T01:34:02.237Z,0
2018-03-04T01:35:11.691Z,0
2018-03-04T01:36:21.724Z,0
2018-03-04T01:37:31.709Z,0
2018-03-04T01:38:41.698Z,0
2018-03-04T01:39:51.159Z,0
2018-03-04T01:41:01.164Z,0
2018-03-04T01:42:10.894Z,0
2018-03-04T01:43:20.881Z,0
2018-03-04T01:44:30.904Z,0
2018-03-04T01:45:40.900Z,0
2018-03-04T01:46:50.619Z,0
2018-03-04T01:48:00.716Z,0
2018-03-04T01:49:10.398Z,0
2018-03-04T01:50:20.378Z,0
2018-03-04T01:51:30.197Z,0
2018-03-04T01:52:39.658Z,0
2018-03-04T01:53:49.647Z,0
2018-03-04T01:54:59.637Z,0
2018-03-04T01:56:09.631Z,0
2018-03-04T01:57:19.622Z,0
2018-03-04T01:58:29.639Z,0
2018-03-04T01:59:39.625Z,0
2018-03-04T02:00:49.341Z,0
2018-03-04T02:01:59.330Z,0
2018-03-04T02:03:09.060Z,0
2018-03-04T02:04:18.785Z,0
2018-03-04T02:05:28.526Z,0
2018-03-04T02:06:38.250Z,0
2018-03-04T02:07:47.971Z,0
2018-03-04T02:08:57.971Z,0
2018-03-04T02:10:07.417Z,0
2018-03-04T02:11:17.135Z,0
2018-03-04T02:12:27.122Z,0
2018-03-04T02:13:37.176Z,0
2018-03-04T02:14:47.169Z,0
2018-03-04T02:15:57.161Z,0
2018-03-04T02:17:07.153Z,0
2018-03-04T02:18:16.611Z,0
2018-03-04T02:19:26.608Z,0
2018-03-04T02:20:36.604Z,0
2018-03-04T02:21:46.597Z,0
2018-03-04T02:22:56.329Z,0
2018-03-04T02:24:06.320Z,0
2018-03-04T02:25:16.044Z,0
2018-03-04T02:26:25.825Z,0
2018-03-04T02:27:35.547Z,0
2018-03-04T02:28:45.533Z,0
2018-03-04T02:29:55.523Z,0
2018-03-04T02:31:05.245Z,0
2018-03-04T02:32:15.325Z,0
2018-03-04T02:33:25.054Z,0
2018-03-04T02:34:34.889Z,0
2018-03-04T02:35:44.878Z,0
2018-03-04T02:36:54.883Z,0
2018-03-04T02:38:04.618Z,0
2018-03-04T02:39:14.104Z,0
2018-03-04T02:40:24.098Z,0
2018-03-04T02:41:33.563Z,0
2018-03-04T02:42:43.282Z,0
2018-03-04T02:43:53.291Z,0
2018-03-04T02:45:03.018Z,0
2018-03-04T02:46:12.207Z,0
2018-03-04T02:47:22.213Z,0
2018-03-04T02:48:32.215Z,0
2018-03-04T02:49:41.674Z,0
2018-03-04T02:50:51.691Z,0
2018-03-04T02:52:01.436Z,0
2018-03-04T02:53:11.453Z,0
2018-03-04T02:54:21.189Z,0
2018-03-04T02:55:31.322Z,0
2018-03-04T02:56:41.052Z,0
2018-03-04T02:57:51.058Z,0
2018-03-04T02:59:01.054Z,0
2018-03-04T03:00:11.079Z,0
2018-03-04T03:01:21.076Z,0
2018-03-04T03:02:31.091Z,0
2018-03-04T03:03:41.095Z,0
2018-03-04T03:04:51.091Z,0
2018-03-04T03:06:01.093Z,0
2018-03-04T03:07:10.337Z,0
2018-03-04T03:08:19.797Z,0
2018-03-04T03:09:28.988Z,0
2018-03-04T03:10:38.714Z,0
2018-03-04T03:11:48.701Z,0
2018-03-04T03:12:58.690Z,0
2018-03-04T03:14:07.876Z,0
2018-03-04T03:15:17.879Z,0
2018-03-04T03:16:27.106Z,0
2018-03-04T03:17:37.104Z,0
2018-03-04T03:18:47.193Z,0
2018-03-04T03:19:57.186Z,0
2018-03-04T03:21:07.234Z,0
2018-03-04T03:22:17.224Z,0
2018-03-04T03:23:27.218Z,0
2018-03-04T03:24:37.038Z,0
2018-03-04T03:25:47.028Z,0
2018-03-04T03:26:57.028Z,0
2018-03-04T03:28:07.012Z,0
2018-03-04T03:29:16.732Z,0
2018-03-04T03:30:26.308Z,0
2018-03-04T03:31:35.500Z,0
2018-03-04T03:32:45.503Z,0
2018-03-04T03:33:55.228Z,0
2018-03-04T03:35:04.949Z,0
2018-03-04T03:36:15.047Z,0
2018-03-04T03:37:24.775Z,0
2018-03-04T03:38:34.501Z,0
2018-03-04T03:39:44.219Z,0
2018-03-04T03:40:53.939Z,0
2018-03-04T03:42:03.936Z,0
2018-03-04T03:43:13.935Z,0
2018-03-04T03:44:23.931Z,0
2018-03-04T03:45:33.410Z,0
2018-03-04T03:46:43.128Z,0
2018-03-04T03:47:52.847Z,0
2018-03-04T03:49:02.581Z,0
2018-03-04T03:50:11.761Z,0
2018-03-04T03:51:21.758Z,0
2018-03-04T03:52:31.533Z,0
2018-03-04T03:53:41.252Z,0
2018-03-04T03:54:51.240Z,0
2018-03-04T03:56:01.233Z,0
2018-03-04T03:57:10.695Z,0
2018-03-04T03:58:20.700Z,0
2018-03-04T03:59:30.699Z,0
2018-03-04T04:03:29.952Z,0
2018-03-04T04:04:39.675Z,0
2018-03-04T04:05:49.400Z,0
2018-03-04T04:06:59.406Z,0
2018-03-04T04:08:09.391Z,0
2018-03-04T04:09:19.111Z,0
2018-03-04T04:10:28.580Z,0
2018-03-04T04:11:38.564Z,0
2018-03-04T04:12:48.556Z,0
2018-03-04T04:13:58.542Z,0
2018-03-04T04:15:08.276Z,0
2018-03-04T04:16:18.007Z,0
2018-03-04T04:17:27.459Z,0
2018-03-04T04:18:37.451Z,0
2018-03-04T04:19:47.437Z,0
2018-03-04T04:20:57.511Z,0
2018-03-04T04:22:07.501Z,0
2018-03-04T04:23:16.961Z,0
2018-03-04T04:24:26.696Z,0
2018-03-04T04:25:36.423Z,0
2018-03-04T04:26:46.143Z,0
2018-03-04T04:27:55.862Z,0
2018-03-04T04:29:05.857Z,0
2018-03-04T04:30:14.776Z,0
2018-03-04T04:31:24.764Z,0
2018-03-04T04:32:34.478Z,0
2018-03-04T04:33:44.475Z,0
2018-03-04T04:34:54.467Z,0
2018-03-04T04:36:04.193Z,0
2018-03-04T04:37:14.177Z,0
2018-03-04T04:38:24.160Z,0
2018-03-04T04:39:33.874Z,0
2018-03-04T04:40:43.859Z,0
2018-03-04T04:41:53.578Z,0
2018-03-04T04:43:03.305Z,0
2018-03-04T04:44:12.494Z,0
2018-03-04T04:45:22.486Z,0
2018-03-04T04:46:32.212Z,0
2018-03-04T04:47:42.202Z,0
2018-03-04T04:48:52.202Z,0
2018-03-04T04:50:02.189Z,0
2018-03-04T04:51:11.910Z,0
2018-03-04T04:52:21.644Z,0
2018-03-04T04:53:31.627Z,0
2018-03-04T04:54:41.620Z,0
2018-03-04T04:55:51.076Z,0
2018-03-04T04:57:00.892Z,0
2018-03-04T04:58:10.890Z,0
2018-03-04T04:59:20.875Z,0
2018-03-04T05:00:30.592Z,0
2018-03-04T05:01:40.592Z,0
2018-03-04T05:02:50.676Z,0
2018-03-04T05:03:59.864Z,0
2018-03-04T05:05:09.862Z,0
2018-03-04T05:06:19.580Z,0
2018-03-04T05:07:29.302Z,0
2018-03-04T05:08:39.285Z,0
2018-03-04T05:09:49.277Z,0
2018-03-04T05:10:58.995Z,0
2018-03-04T05:12:08.452Z,0
2018-03-04T05:13:18.179Z,0
2018-03-04T05:14:28.202Z,0
2018-03-04T05:15:37.663Z,0
2018-03-04T05:16:47.388Z,0
2018-03-04T05:17:57.115Z,0
2018-03-04T05:19:07.131Z,0
2018-03-04T05:20:16.949Z,0
2018-03-04T05:21:26.937Z,0
2018-03-04T05:22:36.662Z,0
2018-03-04T05:23:46.123Z,0
2018-03-04T05:24:55.848Z,0
2018-03-04T05:26:05.305Z,0
2018-03-04T05:27:15.301Z,0
2018-03-04T05:28:24.756Z,0
2018-03-04T05:29:34.748Z,0
2018-03-04T05:30:44.743Z,0
2018-03-04T05:31:54.737Z,0
2018-03-04T05:33:04.728Z,0
2018-03-04T05:34:14.452Z,0
2018-03-04T05:35:24.444Z,0
2018-03-04T05:36:34.435Z,0
2018-03-04T05:37:44.430Z,0
2018-03-04T05:38:54.425Z,0
2018-03-04T05:40:03.883Z,0
2018-03-04T05:41:13.878Z,0
2018-03-04T05:42:23.865Z,0
2018-03-04T05:43:33.846Z,0
2018-03-04T05:44:43.879Z,0
2018-03-04T05:45:53.870Z,0
2018-03-04T05:47:03.861Z,0
2018-03-04T05:48:13.591Z,0
2018-03-04T05:49:23.594Z,0
2018-03-04T05:50:33.315Z,0
2018-03-04T05:51:43.041Z,0
2018-03-04T05:52:52.777Z,0
2018-03-04T05:54:02.510Z,0
2018-03-04T05:55:11.965Z,0
2018-03-04T05:56:21.950Z,0
2018-03-04T05:57:31.412Z,0
2018-03-04T05:58:41.407Z,0
2018-03-04T05:59:51.394Z,5
2018-03-04T06:01:01.122Z,5
2018-03-04T06:02:10.851Z,5
2018-03-04T06:03:20.576Z,5
2018-03-04T06:04:30.324Z,5
2018-03-04T06:05:39.782Z,5
2018-03-04T06:06:49.774Z,5
2018-03-04T06:07:59.757Z,10
2018-03-04T06:09:09.481Z,10
2018-03-04T06:10:19.209Z,10
2018-03-04T06:11:28.934Z,10
2018-03-04T06:12:38.925Z,10
2018-03-04T06:13:48.649Z,10
2018-03-04T06:14:58.647Z,10
2018-03-04T06:16:08.376Z,15
2018-03-04T06:17:17.829Z,15
2018-03-04T06:18:27.288Z,15
2018-03-04T06:19:36.741Z,15
2018-03-04T06:20:46.728Z,20
2018-03-04T06:21:56.712Z,20
2018-03-04T06:23:06.706Z,20
2018-03-04T06:24:16.698Z,20
2018-03-04T06:25:26.431Z,25
2018-03-04T06:26:36.414Z,25
2018-03-04T06:27:46.400Z,25
2018-03-04T06:28:56.384Z,30
2018-03-04T06:30:06.379Z,30
2018-03-04T06:31:16.381Z,30
2018-03-04T06:32:26.373Z,30
2018-03-04T06:33:36.158Z,35
2018-03-04T06:34:46.150Z,35
2018-03-04T06:35:56.136Z,35
2018-03-04T06:37:05.853Z,40
2018-03-04T06:38:15.904Z,40
2018-03-04T06:39:25.646Z,40
2018-03-04T06:40:34.839Z,45
2018-03-04T06:41:44.831Z,45
2018-03-04T06:42:54.553Z,45
2018-03-04T06:44:04.545Z,50
2018-03-04T06:45:14.542Z,50
2018-03-04T06:46:24.529Z,50
2018-03-04T06:47:34.253Z,55
2018-03-04T06:48:43.968Z,55
2018-03-04T06:49:53.957Z,60
2018-03-04T06:51:03.949Z,60
2018-03-04T06:52:13.675Z,60
2018-03-04T06:53:23.669Z,65
2018-03-04T06:54:33.650Z,65
2018-03-04T06:55:43.642Z,65
2018-03-04T06:56:53.629Z,70
2018-03-04T06:58:03.728Z,75
2018-03-04T06:59:13.184Z,75
2018-03-04T07:00:22.911Z,80
2018-03-04T07:01:32.363Z,85
2018-03-04T07:02:42.092Z,85
2018-03-04T07:03:51.811Z,90
2018-03-04T07:05:01.594Z,95
2018-03-04T07:06:11.053Z,100
2018-03-04T07:07:21.042Z,100
2018-03-04T07:08:30.764Z,105
2018-03-04T07:09:40.485Z,110
2018-03-04T07:10:50.527Z,110
2018-03-04T07:12:00.250Z,115
2018-03-04T07:13:09.438Z,115
2018-03-04T07:14:19.159Z,115
2018-03-04T07:15:29.147Z,120
2018-03-04T07:16:39.143Z,120
2018-03-04T07:17:48.868Z,125
2018-03-04T07:18:58.596Z,125
2018-03-04T07:20:08.583Z,130
2018-03-04T07:21:18.576Z,130
2018-03-04T07:22:28.407Z,135
2018-03-04T07:23:38.504Z,135
2018-03-04T07:24:48.510Z,135
2018-03-04T07:25:58.496Z,140
2018-03-04T07:27:08.494Z,140
2018-03-04T07:28:18.598Z,145
2018-03-04T07:29:28.320Z,145
2018-03-04T07:30:38.314Z,150
2018-03-04T07:31:48.300Z,150
2018-03-04T07:32:58.020Z,150
2018-03-04T07:34:08.007Z,155
2018-03-04T07:35:17.522Z,155
2018-03-04T07:36:27.241Z,155
2018-03-04T07:37:37.239Z,155
2018-03-04T07:38:47.230Z,160
2018-03-04T07:39:57.214Z,160
2018-03-04T07:41:06.947Z,165
2018-03-04T07:42:16.935Z,165
2018-03-04T07:43:26.921Z,170
2018-03-04T07:44:36.916Z,175
2018-03-04T07:45:46.909Z,180
2018-03-04T07:46:56.908Z,185
2018-03-04T07:48:06.365Z,185
2018-03-04T07:49:16.093Z,190
2018-03-04T07:50:26.080Z,195
2018-03-04T07:51:35.810Z,205
2018-03-04T07:52:45.854Z,210
2018-03-04T07:53:55.310Z,215
2018-03-04T07:55:04.500Z,225
2018-03-04T07:56:13.960Z,235
2018-03-04T07:57:23.418Z,245
2018-03-04T07:58:32.870Z,240
2018-03-04T07:59:42.443Z,245
2018-03-04T08:00:51.896Z,245
2018-03-04T08:02:01.887Z,235
2018-03-04T08:03:11.343Z,230
2018-03-04T08:04:20.800Z,225
2018-03-04T08:05:30.524Z,225
2018-03-04T08:06:40.514Z,230
2018-03-04T08:07:49.997Z,240
2018-03-04T08:08:59.720Z,255
2018-03-04T08:10:09.715Z,260
2018-03-04T08:11:19.446Z,270
2018-03-04T08:12:29.166Z,280
2018-03-04T08:13:39.200Z,290
2018-03-04T08:14:48.921Z,300
2018-03-04T08:15:58.902Z,305
2018-03-04T08:17:08.887Z,310
2018-03-04T08:18:18.889Z,305
2018-03-04T08:19:28.873Z,305
2018-03-04T08:20:38.857Z,305
2018-03-04T08:21:48.848Z,305
2018-03-04T08:22:58.856Z,300
2018-03-04T08:24:08.858Z,305
2018-03-04T08:25:18.852Z,305
2018-03-04T08:26:28.410Z,300
2018-03-04T08:27:38.401Z,300
2018-03-04T08:28:48.506Z,300
2018-03-04T08:29:58.497Z,300
2018-03-04T08:31:08.219Z,300
2018-03-04T08:32:17.946Z,300
2018-03-04T08:33:27.936Z,295
2018-03-04T08:34:37.764Z,295
2018-03-04T08:35:47.225Z,295
2018-03-04T08:36:56.956Z,295
2018-03-04T08:38:06.944Z,295
2018-03-04T08:39:16.707Z,300
2018-03-04T08:40:26.893Z,300
2018-03-04T08:41:36.889Z,305
2018-03-04T08:42:46.081Z,305
2018-03-04T08:43:56.063Z,310
2018-03-04T08:45:05.792Z,315
2018-03-04T08:46:15.518Z,320
2018-03-04T08:47:25.507Z,325
2018-03-04T08:48:35.233Z,325
2018-03-04T08:49:45.275Z,325
2018-03-04T08:50:54.839Z,330
2018-03-04T08:52:04.565Z,325
2018-03-04T08:53:14.560Z,325
2018-03-04T08:54:24.281Z,325
2018-03-04T08:55:33.999Z,330
2018-03-04T08:56:43.998Z,330
2018-03-04T08:57:53.988Z,340
2018-03-04T08:59:03.988Z,340
2018-03-04T09:00:14.004Z,345
2018-03-04T09:01:24.129Z,350
2018-03-04T09:02:33.863Z,355
2018-03-04T09:03:43.848Z,365
2018-03-04T09:04:53.578Z,370
2018-03-04T09:06:03.572Z,375
2018-03-04T09:07:13.558Z,380
2018-03-04T09:08:23.570Z,385
2018-03-04T09:09:33.664Z,385
2018-03-04T09:10:43.662Z,390
2018-03-04T09:11:53.658Z,390
2018-03-04T09:13:03.657Z,395
2018-03-04T09:14:13.383Z,400
2018-03-04T09:15:22.846Z,400
2018-03-04T09:16:32.566Z,400
2018-03-04T09:17:42.295Z,400
2018-03-04T09:18:51.756Z,400
2018-03-04T09:20:01.518Z,400
2018-03-04T09:21:11.239Z,405
2018-03-04T09:22:21.244Z,410
2018-03-04T09:23:30.994Z,410
2018-03-04T09:24:40.720Z,415
2018-03-04T09:25:50.180Z,420
2018-03-04T09:26:59.906Z,430
2018-03-04T09:28:09.375Z,435
2018-03-04T09:29:19.113Z,445
2018-03-04T09:30:29.114Z,450
2018-03-04T09:31:38.843Z,460
2018-03-04T09:32:48.839Z,465
2018-03-04T09:33:58.838Z,475
2018-03-04T09:35:08.029Z,480
2018-03-04T09:36:18.020Z,485
2018-03-04T09:37:28.014Z,495
2018-03-04T09:38:38.184Z,500
2018-03-04T09:39:48.187Z,510
2018-03-04T09:40:57.936Z,505
2018-03-04T09:42:07.665Z,505
2018-03-04T09:43:17.403Z,510
2018-03-04T09:44:27.418Z,510
2018-03-04T09:45:37.339Z,515
2018-03-04T09:46:47.065Z,515
2018-03-04T09:47:57.057Z,520
2018-03-04T09:49:07.090Z,525
2018-03-04T09:50:17.087Z,525
2018-03-04T09:51:26.816Z,530
2018-03-04T09:52:36.805Z,535
2018-03-04T09:53:46.801Z,540
2018-03-04T09:54:56.795Z,540
2018-03-04T09:56:06.803Z,540
2018-03-04T09:57:16.802Z,540
2018-03-04T09:58:26.266Z,540
2018-03-04T09:59:36.363Z,545
2018-03-04T10:00:46.359Z,545
2018-03-04T10:01:55.550Z,540
2018-03-04T10:03:05.277Z,535
2018-03-04T10:04:14.203Z,530
2018-03-04T10:05:24.203Z,525
2018-03-04T10:06:33.930Z,525
2018-03-04T10:07:43.928Z,520
2018-03-04T10:08:53.739Z,515
2018-03-04T10:10:03.206Z,510
2018-03-04T10:11:12.401Z,505
2018-03-04T10:12:22.126Z,505
2018-03-04T10:13:31.854Z,495
2018-03-04T10:14:41.584Z,490
2018-03-04T10:15:51.583Z,490
2018-03-04T10:17:01.309Z,495
2018-03-04T10:18:11.316Z,495
2018-03-04T10:19:21.318Z,500
2018-03-04T10:20:31.423Z,505
2018-03-04T10:21:41.420Z,505
2018-03-04T10:22:51.153Z,510
2018-03-04T10:24:00.614Z,515
2018-03-04T10:25:09.810Z,525
2018-03-04T10:26:19.074Z,520
2018-03-04T10:27:29.066Z,520
2018-03-04T10:28:39.071Z,525
2018-03-04T10:29:49.064Z,530
2018-03-04T10:30:59.064Z,530
2018-03-04T10:32:09.067Z,540
2018-03-04T10:33:18.792Z,540
2018-03-04T10:34:28.038Z,540
2018-03-04T10:35:38.034Z,550
2018-03-04T10:36:47.495Z,555
2018-03-04T10:37:57.234Z,560
2018-03-04T10:39:06.966Z,555
2018-03-04T10:40:17.020Z,565
2018-03-04T10:41:26.754Z,565
2018-03-04T10:42:36.491Z,565
2018-03-04T10:43:46.210Z,545
2018-03-04T10:44:56.210Z,540
2018-03-04T10:46:06.036Z,540
2018-03-04T10:47:15.761Z,530
2018-03-04T10:48:25.756Z,525
2018-03-04T10:49:35.225Z,525
2018-03-04T10:50:45.231Z,530
2018-03-04T10:51:54.962Z,530
2018-03-04T10:53:04.696Z,530
2018-03-04T10:54:14.426Z,530
2018-03-04T10:55:24.421Z,530
2018-03-04T10:56:33.885Z,530
2018-03-04T10:57:43.881Z,530
2018-03-04T10:58:53.906Z,535
2018-03-04T11:00:03.920Z,540
2018-03-04T11:01:13.654Z,550
2018-03-04T11:02:23.651Z,550
2018-03-04T11:03:33.644Z,565
2018-03-04T11:04:43.384Z,565
2018-03-04T11:05:53.388Z,580
2018-03-04T11:07:03.377Z,585
2018-03-04T11:08:13.118Z,605
2018-03-04T11:09:23.166Z,630
2018-03-04T11:10:32.895Z,650
2018-03-04T11:11:43.005Z,645
2018-03-04T11:12:52.997Z,615
2018-03-04T11:14:02.991Z,625
2018-03-04T11:15:11.920Z,635
2018-03-04T11:16:21.652Z,645
2018-03-04T11:17:31.114Z,640
2018-03-04T11:18:41.108Z,645
2018-03-04T11:19:51.106Z,655
2018-03-04T11:21:01.110Z,645
2018-03-04T11:22:10.844Z,660
2018-03-04T11:23:20.575Z,655
2018-03-04T11:24:30.382Z,650
2018-03-04T11:25:39.580Z,660
2018-03-04T11:26:49.324Z,650
2018-03-04T11:27:58.799Z,645
2018-03-04T11:29:08.803Z,645
2018-03-04T11:30:18.273Z,650
2018-03-04T11:31:28.012Z,655
2018-03-04T11:32:38.116Z,660
2018-03-04T11:33:47.314Z,660
2018-03-04T11:34:57.045Z,655
2018-03-04T11:36:06.789Z,655
2018-03-04T11:37:16.533Z,655
2018-03-04T11:38:26.000Z,655
2018-03-04T11:39:35.200Z,675
2018-03-04T11:40:44.409Z,700
2018-03-04T11:41:53.876Z,710
2018-03-04T11:43:03.681Z,725
2018-03-04T11:44:13.146Z,745
2018-03-04T11:45:22.617Z,735
2018-03-04T11:46:31.549Z,765
2018-03-04T11:47:41.019Z,755
2018-03-04T11:48:51.015Z,750
2018-03-04T11:50:01.021Z,740
2018-03-04T11:51:11.044Z,745
2018-03-04T11:52:21.063Z,765
2018-03-04T11:53:30.795Z,765
2018-03-04T11:54:40.798Z,745
2018-03-04T11:55:50.854Z,745
2018-03-04T11:57:00.594Z,740
2018-03-04T11:58:10.332Z,755
2018-03-04T11:59:20.333Z,760
2018-03-04T12:00:29.804Z,795
2018-03-04T12:01:39.543Z,810
2018-03-04T12:02:49.273Z,830
2018-03-04T12:03:59.415Z,825
2018-03-04T12:05:08.895Z,815
2018-03-04T12:06:18.631Z,855
2018-03-04T12:07:28.775Z,875
2018-03-04T12:08:38.782Z,875
2018-03-04T12:09:49.054Z,900
2018-03-04T12:10:59.069Z,880
2018-03-04T12:12:09.074Z,885
2018-03-04T12:13:18.272Z,840
2018-03-04T12:14:27.738Z,865
2018-03-04T12:15:37.488Z,875
2018-03-04T12:16:47.232Z,865
2018-03-04T12:17:57.251Z,885
2018-03-04T12:19:06.989Z,910
2018-03-04T12:20:16.723Z,915
2018-03-04T12:21:26.461Z,930
2018-03-04T12:22:36.467Z,945
2018-03-04T12:23:46.471Z,925
2018-03-04T12:24:55.946Z,910
2018-03-04T12:26:05.688Z,885
2018-03-04T12:27:15.161Z,910
2018-03-04T12:28:24.911Z,920
2018-03-04T12:29:34.649Z,935
2018-03-04T12:30:44.758Z,940
2018-03-04T12:31:54.227Z,915
2018-03-04T12:33:04.230Z,935
2018-03-04T12:34:14.240Z,980
2018-03-04T12:35:23.714Z,985
2018-03-04T12:36:33.730Z,960
2018-03-04T12:37:43.736Z,940
2018-03-04T12:38:53.478Z,930
2018-03-04T12:40:03.220Z,905
2018-03-04T12:41:12.688Z,915
2018-03-04T12:42:22.158Z,915
2018-03-04T12:43:32.171Z,895
2018-03-04T12:44:41.911Z,890
2018-03-04T12:45:51.656Z,945
2018-03-04T12:47:01.672Z,1030
2018-03-04T12:48:11.679Z,1225
2018-03-04T12:49:21.684Z,1610
2018-03-04T12:50:31.694Z,1430
2018-03-04T12:51:41.174Z,1215
2018-03-04T12:52:51.181Z,1155
2018-03-04T12:54:00.927Z,1070
2018-03-04T12:55:10.449Z,1070
2018-03-04T12:56:21.265Z,1065
2018-03-04T12:57:31.436Z,1085
2018-03-04T12:58:41.331Z,1115
2018-03-04T12:59:51.589Z,1070
2018-03-04T13:01:01.331Z,1085
2018-03-04T13:02:11.354Z,1050
2018-03-04T13:03:21.094Z,1075
2018-03-04T13:04:30.301Z,1140
2018-03-04T13:05:39.773Z,1150
2018-03-04T13:06:49.581Z,1180
2018-03-04T13:07:59.037Z,1125
2018-03-04T13:09:09.055Z,1020
2018-03-04T13:10:19.061Z,910
2018-03-04T13:11:28.804Z,845
2018-03-04T13:12:38.279Z,815
2018-03-04T13:13:48.017Z,795
2018-03-04T13:14:57.490Z,790
2018-03-04T13:16:07.503Z,820
2018-03-04T13:17:17.238Z,820
2018-03-04T13:18:26.811Z,790
2018-03-04T13:19:36.285Z,765
2018-03-04T13:20:46.019Z,735
2018-03-04T13:21:56.031Z,730
2018-03-04T13:23:05.874Z,715
2018-03-04T13:24:15.885Z,690
2018-03-04T13:25:25.881Z,680
2018-03-04T13:26:35.892Z,670
2018-03-04T13:27:45.627Z,670
2018-03-04T13:28:55.399Z,665
2018-03-04T13:30:04.603Z,645
2018-03-04T13:31:14.607Z,625
2018-03-04T13:32:24.078Z,615
2018-03-04T13:33:34.082Z,610
2018-03-04T13:34:43.820Z,600
2018-03-04T13:35:53.822Z,590
2018-03-04T13:37:03.555Z,580
2018-03-04T13:38:13.562Z,570
2018-03-04T13:39:23.559Z,575
2018-03-04T13:40:33.569Z,560
2018-03-04T13:41:43.307Z,550
2018-03-04T13:42:53.041Z,550
2018-03-04T13:44:03.044Z,550
2018-03-04T13:45:12.530Z,555
2018-03-04T13:46:22.366Z,555
2018-03-04T13:47:32.107Z,560
2018-03-04T13:48:41.842Z,570
2018-03-04T13:49:51.318Z,565
2018-03-04T13:51:00.788Z,560
2018-03-04T13:52:10.792Z,555
2018-03-04T13:53:20.797Z,555
2018-03-04T13:54:30.536Z,565
2018-03-04T13:55:40.545Z,580
2018-03-04T13:56:50.278Z,585
2018-03-04T13:58:00.014Z,585
2018-03-04T13:59:10.022Z,560
2018-03-04T14:00:19.764Z,540
2018-03-04T14:01:29.548Z,520
2018-03-04T14:02:39.284Z,510
2018-03-04T14:03:48.753Z,490
2018-03-04T14:04:58.769Z,480
2018-03-04T14:06:08.506Z,465
2018-03-04T14:07:18.501Z,465
2018-03-04T14:08:28.234Z,455
2018-03-04T14:09:38.238Z,450
2018-03-04T14:10:48.238Z,440
2018-03-04T14:11:58.240Z,435
2018-03-04T14:13:08.249Z,425
2018-03-04T14:14:18.245Z,420
2018-03-04T14:15:28.269Z,420
2018-03-04T14:16:38.166Z,415
2018-03-04T14:17:48.171Z,415
2018-03-04T14:18:58.178Z,410
2018-03-04T14:20:07.649Z,410
2018-03-04T14:21:17.650Z,410
2018-03-04T14:22:27.379Z,405
2018-03-04T14:23:37.115Z,400
2018-03-04T14:24:46.596Z,395
2018-03-04T14:25:56.332Z,390
2018-03-04T14:27:06.067Z,385
2018-03-04T14:28:15.536Z,380
2018-03-04T14:29:25.607Z,375
2018-03-04T14:30:35.108Z,370
2018-03-04T14:31:44.850Z,365
2018-03-04T14:32:55.004Z,360
2018-03-04T14:34:05.009Z,355
2018-03-04T14:35:14.745Z,355
2018-03-04T14:36:24.221Z,355
2018-03-04T14:37:34.217Z,355
2018-03-04T14:38:43.947Z,350
2018-03-04T14:39:53.677Z,345
2018-03-04T14:41:03.675Z,335
2018-03-04T14:42:13.673Z,330
2018-03-04T14:43:23.411Z,325
2018-03-04T14:44:33.404Z,315
2018-03-04T14:45:43.133Z,305
2018-03-04T14:46:52.858Z,305
2018-03-04T14:48:02.336Z,295
2018-03-04T14:49:11.800Z,290
2018-03-04T14:50:21.550Z,285
2018-03-04T14:51:31.546Z,280
2018-03-04T14:52:41.552Z,275
2018-03-04T14:53:51.554Z,270
2018-03-04T14:55:01.281Z,270
2018-03-04T14:56:11.015Z,270
2018-03-04T14:57:20.746Z,275
2018-03-04T14:58:30.485Z,275
2018-03-04T14:59:39.950Z,280
2018-03-04T15:00:49.675Z,280
2018-03-04T15:01:59.404Z,280
2018-03-04T15:03:09.398Z,280
2018-03-04T15:04:18.859Z,280
2018-03-04T15:05:28.583Z,280
2018-03-04T15:06:38.584Z,275
2018-03-04T15:07:48.043Z,270
2018-03-04T15:08:58.036Z,265
2018-03-04T15:10:08.048Z,260
2018-03-04T15:11:18.040Z,255
2018-03-04T15:12:27.770Z,250
2018-03-04T15:13:37.497Z,245
2018-03-04T15:14:47.224Z,245
2018-03-04T15:15:56.990Z,240
2018-03-04T15:17:06.718Z,240
2018-03-04T15:18:16.712Z,235
2018-03-04T15:19:26.178Z,235
2018-03-04T15:20:36.178Z,235
2018-03-04T15:21:45.904Z,240
2018-03-04T15:22:55.902Z,235
2018-03-04T15:24:05.904Z,235
2018-03-04T15:25:16.032Z,230
2018-03-04T15:26:25.769Z,225
2018-03-04T15:27:35.762Z,220
2018-03-04T15:28:45.510Z,215
2018-03-04T15:29:55.314Z,205
2018-03-04T15:31:05.053Z,200
2018-03-04T15:32:14.787Z,190
2018-03-04T15:33:24.517Z,185
2018-03-04T15:34:34.255Z,180
2018-03-04T15:35:43.984Z,175
2018-03-04T15:36:53.713Z,170
2018-03-04T15:38:02.913Z,170
2018-03-04T15:39:12.380Z,170
2018-03-04T15:40:22.112Z,165
2018-03-04T15:41:31.843Z,160
2018-03-04T15:42:41.837Z,155
2018-03-04T15:43:51.297Z,150
2018-03-04T15:45:01.036Z,145
2018-03-04T15:46:11.027Z,140
2018-03-04T15:47:21.024Z,135
2018-03-04T15:48:31.019Z,130
2018-03-04T15:49:40.746Z,125
2018-03-04T15:50:50.474Z,125
2018-03-04T15:52:00.203Z,120
2018-03-04T15:53:10.331Z,120
2018-03-04T15:54:20.674Z,120
2018-03-04T15:55:30.681Z,125
2018-03-04T15:56:40.672Z,125
2018-03-04T15:57:50.443Z,130
2018-03-04T15:59:00.451Z,130
2018-03-04T16:00:09.917Z,125
2018-03-04T16:01:19.384Z,125
2018-03-04T16:02:29.371Z,125
2018-03-04T16:03:39.375Z,125
2018-03-04T16:04:48.840Z,120
2018-03-04T16:05:58.575Z,120
2018-03-04T16:07:08.306Z,120
2018-03-04T16:08:17.770Z,120
2018-03-04T16:09:27.813Z,120
2018-03-04T16:10:37.271Z,120
2018-03-04T16:11:46.998Z,130
2018-03-04T16:12:57.003Z,140
2018-03-04T16:14:07.015Z,155
2018-03-04T16:15:16.754Z,160
2018-03-04T16:16:26.752Z,160
2018-03-04T16:17:36.530Z,145
2018-03-04T16:18:46.265Z,120
2018-03-04T16:19:56.270Z,100
2018-03-04T16:21:05.726Z,90
2018-03-04T16:22:15.192Z,80
2018-03-04T16:23:24.469Z,75
2018-03-04T16:24:34.309Z,70
2018-03-04T16:25:44.044Z,70
2018-03-04T16:26:53.771Z,65
2018-03-04T16:28:03.508Z,65
2018-03-04T16:29:13.603Z,60
2018-03-04T16:30:23.607Z,55
2018-03-04T16:31:32.799Z,50